Time;durP1;ratioP1;P1;durP2;ratioP2;P2;SDS_P1;SDS_P2;PMS_P1;PMS_P2;Temp;Humidity;BMP_temperature;BMP_pressure;BME280_temperature;BME280_humidity;BME280_pressure;Samples;Min_cycle;Max_cycle;Signal;HPM_P1;HPM_P2
2023/09/09 00:01:41;;;;;;;22.20;19.30;;;;;;;18.08;62.85;100907.64;108967;1278;22104;-78
2023/09/09 00:04:18;;;;;;;24.30;19.30;;;;;;;18.05;62.94;100908.16;109177;1271;21976;-77
2023/09/09 00:07:02;;;;;;;21.40;19.00;;;;;;;18.03;63.01;100906.21;109632;1271;21978;-78
2023/09/09 00:10:08;;;;;;;25.50;20.30;;;;;;;17.97;63.25;100909.54;109554;1271;23850;-79
2023/09/09 00:16:16;;;;;;;21.90;19.50;;;;;;;17.89;63.53;100908.56;110349;1266;23052;-78
2023/09/09 00:19:06;;;;;;;27.60;18.90;;;;;;;17.87;63.51;100906.95;110111;1266;21973;-79
2023/09/09 00:21:50;;;;;;;22.60;19.00;;;;;;;17.85;63.41;100909.16;110104;1266;22161;-78
2023/09/09 00:24:27;;;;;;;20.90;18.70;;;;;;;17.82;63.52;100907.27;110154;1267;22024;-78
2023/09/09 00:27:22;;;;;;;21.40;18.30;;;;;;;17.76;63.59;100907.55;110391;1260;23631;-79
2023/09/09 00:30:27;;;;;;;26.30;20.90;;;;;;;17.71;63.75;100908.58;110895;1260;21972;-78
2023/09/09 00:33:14;;;;;;;21.30;19.20;;;;;;;17.65;63.89;100911.56;110963;1260;23340;-78
2023/09/09 00:35:45;;;;;;;23.40;19.00;;;;;;;17.63;63.90;100908.68;111168;1260;22820;-79
2023/09/09 00:38:22;;;;;;;26.80;18.90;;;;;;;17.61;63.95;100906.86;110932;1260;23711;-78
2023/09/09 00:41:42;;;;;;;26.80;21.00;;;;;;;17.58;64.11;100904.42;111017;1260;23116;-79
2023/09/09 00:44:24;;;;;;;22.20;19.20;;;;;;;17.46;64.21;100897.21;109819;1271;21980;-78
2023/09/09 00:47:06;;;;;;;;;;;;;;;;;;;;;
2023/09/09 00:50:11;;;;;;;25.70;20.50;;;;;;;17.40;64.45;100898.98;109646;1271;23031;-77
2023/09/09 00:53:13;;;;;;;22.80;18.50;;;;;;;17.32;64.62;100894.11;110183;1266;21983;-79
2023/09/09 00:56:08;;;;;;;22.90;19.70;;;;;;;17.26;64.83;100884.07;110173;1266;23696;-79
2023/09/09 00:58:41;;;;;;;23.40;19.10;;;;;;;17.25;64.97;100879.91;110256;1266;22228;-78
2023/09/09 01:01:17;;;;;;;21.40;19.20;;;;;;;17.27;65.02;100884.01;110350;1266;21976;-79
2023/09/09 01:03:57;;;;;;;22.30;19.80;;;;;;;17.26;65.06;100881.80;110152;1268;21980;-77
2023/09/09 01:06:52;;;;;;;23.50;20.50;;;;;;;17.23;65.12;100885.31;109721;1267;24880;-81
2023/09/09 01:09:57;;;;;;;24.40;20.10;;;;;;;17.16;65.26;100887.44;109638;1273;23029;-78
2023/09/09 01:12:49;;;;;;;;;;;;;;;;;;;;;
2023/09/09 01:15:41;;;;;;;22.60;19.20;;;;;;;17.09;65.31;100887.89;109658;1268;23094;-77
2023/09/09 01:18:51;;;;;;;20.10;18.10;;;;;;;17.03;65.40;100886.97;109699;1267;21973;-77
2023/09/09 01:22:08;;;;;;;20.60;18.10;;;;;;;16.96;65.60;100891.91;109647;1261;21973;-78
2023/09/09 01:25:05;;;;;;;25.60;19.50;;;;;;;16.93;65.90;100900.55;109582;1270;22933;-77
2023/09/09 01:27:52;;;;;;;21.70;18.50;;;;;;;16.91;65.94;100903.09;109587;1264;21995;-78
2023/09/09 01:30:37;;;;;;;24.10;18.30;;;;;;;16.90;66.11;100900.34;110308;1262;23693;-77
2023/09/09 01:33:13;;;;;;;21.30;19.20;;;;;;;16.93;66.13;100901.25;110318;1264;23533;-77
2023/09/09 01:36:13;;;;;;;21.70;19.40;;;;;;;16.88;66.25;100899.06;109335;1273;22571;-77
2023/09/09 01:38:53;;;;;;;27.50;19.10;;;;;;;16.86;66.32;100897.44;109252;1273;23654;-77
2023/09/09 01:41:48;;;;;;;23.10;18.70;;;;;;;16.86;66.29;100899.34;109381;1273;23476;-80
2023/09/09 01:44:32;;;;;;;24.50;19.30;;;;;;;16.85;66.37;100899.92;109408;1268;21983;-77
2023/09/09 01:47:13;;;;;;;22.00;18.60;;;;;;;16.85;66.51;100899.76;110592;1265;21968;-78
2023/09/09 01:50:02;;;;;;;19.50;17.60;;;;;;;16.85;66.40;100903.09;110177;1265;23018;-80
2023/09/09 01:52:46;;;;;;;25.40;19.50;;;;;;;16.84;66.43;100901.72;110522;1265;21973;-78
2023/09/09 01:55:17;;;;;;;21.50;18.60;;;;;;;16.85;66.40;100901.84;110874;1259;21967;-79
2023/09/09 01:58:09;;;;;;;20.40;18.40;;;;;;;16.83;66.40;100900.58;110338;1265;23696;-78
2023/09/09 02:00:51;;;;;;;21.00;18.80;;;;;;;16.82;66.46;100899.55;110278;1264;21972;-77
2023/09/09 02:03:31;;;;;;;22.30;19.90;;;;;;;16.80;66.37;100900.88;110264;1265;22164;-76
2023/09/09 02:06:08;;;;;;;21.20;19.00;;;;;;;16.78;66.48;100899.93;109547;1268;21995;-77
2023/09/09 02:08:38;;;;;;;21.00;18.80;;;;;;;16.76;66.50;100897.73;109415;1273;22400;-77
2023/09/09 02:11:20;;;;;;;21.40;19.20;;;;;;;16.75;66.40;100899.55;109233;1273;22971;-77
2023/09/09 02:14:25;;;;;;;22.70;19.70;;;;;;;16.72;66.52;100904.66;109191;1273;21979;-76
2023/09/09 02:16:55;;;;;;;26.10;20.70;;;;;;;16.68;66.61;100899.74;110060;1266;24255;-77
2023/09/09 02:19:49;;;;;;;22.40;20.00;;;;;;;16.65;66.64;100899.93;109581;1266;22078;-78
2023/09/09 02:23:20;;;;;;;22.30;18.90;;;;;;;16.61;66.70;100902.10;110082;1266;21932;-77
2023/09/09 02:25:55;;;;;;;25.00;20.10;;;;;;;16.57;66.88;100905.09;110461;1257;21990;-76
2023/09/09 02:28:30;;;;;;;21.90;19.70;;;;;;;16.56;66.83;100904.47;110922;1257;22973;-77
2023/09/09 02:31:38;;;;;;;25.60;22.10;;;;;;;16.54;66.92;100903.35;110759;1261;21958;-79
2023/09/09 02:34:16;;;;;;;24.00;21.70;;;;;;;16.50;67.00;100900.04;110709;1261;22118;-78
2023/09/09 02:37:19;;;;;;;23.10;20.90;;;;;;;16.48;66.98;100898.38;110728;1261;24039;-79
2023/09/09 02:39:53;;;;;;;22.60;20.10;;;;;;;16.45;67.03;100897.69;110613;1261;21963;-78
2023/09/09 02:42:37;;;;;;;22.50;19.90;;;;;;;16.42;66.93;100900.64;110676;1261;21973;-78
2023/09/09 02:45:32;;;;;;;25.00;20.80;;;;;;;16.36;67.20;100905.50;110717;1261;21968;-78
2023/09/09 02:48:43;;;;;;;;;;;;;;;;;;;;;
2023/09/09 02:52:17;;;;;;;23.20;21.00;;;;;;;16.26;67.41;100904.47;109979;1268;22747;-76
2023/09/09 02:55:46;;;;;;;25.20;20.80;;;;;;;16.22;67.41;100903.48;109773;1268;23625;-76
2023/09/09 02:58:46;;;;;;;22.80;20.50;;;;;;;16.16;67.68;100905.85;108663;1280;21989;-76
2023/09/09 03:02:01;;;;;;;24.60;22.20;;;;;;;16.14;67.50;100903.71;108484;1283;22009;-76
2023/09/09 03:04:41;;;;;;;31.10;23.30;;;;;;;16.13;67.63;100901.46;108456;1283;24334;-77
2023/09/09 03:07:19;;;;;;;24.90;22.40;;;;;;;16.12;67.83;100905.92;108592;1279;22066;-78
2023/09/09 03:09:52;;;;;;;24.70;22.20;;;;;;;16.10;67.90;100908.45;108563;1282;22010;-77
2023/09/09 03:12:30;;;;;;;25.60;23.20;;;;;;;16.09;67.90;100904.83;108630;1282;22301;-77
2023/09/09 03:15:09;;;;;;;22.80;20.70;;;;;;;16.06;67.83;100906.90;108732;1275;22009;-78
2023/09/09 03:17:52;;;;;;;23.40;21.10;;;;;;;16.03;67.77;100906.19;109051;1275;21981;-79
2023/09/09 03:20:40;;;;;;;22.80;20.40;;;;;;;15.97;68.03;100905.27;108994;1275;23760;-76
2023/09/09 03:23:34;;;;;;;21.20;19.00;;;;;;;15.94;67.92;100905.05;109011;1275;21976;-76
2023/09/09 03:26:23;;;;;;;23.80;21.40;;;;;;;15.93;68.11;100912.68;109030;1275;21987;-77
2023/09/09 03:28:54;;;;;;;24.70;21.60;;;;;;;15.88;68.24;100911.00;109154;1271;22029;-77
2023/09/09 03:31:49;;;;;;;22.10;20.00;;;;;;;15.83;68.13;100909.53;109430;1273;23670;-76
2023/09/09 03:34:52;;;;;;;23.00;20.60;;;;;;;15.77;68.30;100907.88;109194;1273;23760;-77
2023/09/09 03:37:34;;;;;;;25.80;23.20;;;;;;;15.75;68.48;100909.20;108990;1274;22062;-78
2023/09/09 03:40:19;;;;;;;26.40;23.40;;;;;;;15.72;68.51;100907.55;109155;1272;22300;-77
2023/09/09 03:42:58;;;;;;;27.50;21.20;;;;;;;15.72;68.60;100906.91;109522;1268;21906;-78
2023/09/09 03:45:57;;;;;;;29.30;23.40;;;;;;;15.69;68.77;100907.73;109300;1272;23808;-76
2023/09/09 03:48:27;;;;;;;27.60;23.10;;;;;;;15.68;68.84;100906.73;109720;1271;22090;-76
2023/09/09 03:51:11;;;;;;;24.50;22.20;;;;;;;15.66;68.83;100909.79;109391;1268;23030;-77
2023/09/09 03:53:44;;;;;;;24.40;22.10;;;;;;;15.66;68.75;100913.50;110009;1268;22744;-76
2023/09/09 03:59:43;;;;;;;25.40;22.80;;;;;;;15.57;69.01;100915.31;109688;1269;23726;-77
2023/09/09 04:02:31;;;;;;;31.50;23.30;;;;;;;15.57;69.02;100914.27;109851;1269;23621;-76
2023/09/09 04:05:10;;;;;;;;;;;;;;;15.56;69.08;100913.98;109819;1262;21972;-78
2023/09/09 04:08:08;;;;;;;23.70;21.30;;;;;;;15.45;69.36;100910.83;109824;1269;23054;-78
2023/09/09 04:10:58;;;;;;;25.20;22.60;;;;;;;15.46;69.46;100913.43;109745;1269;21943;-76
2023/09/09 04:14:08;;;;;;;26.50;23.50;;;;;;;15.45;69.60;100913.98;109632;1269;23598;-79
2023/09/09 04:16:49;;;;;;;26.00;22.70;;;;;;;15.48;69.56;100914.75;110090;1269;23621;-78
2023/09/09 04:19:52;;;;;;;26.90;24.00;;;;;;;15.46;69.58;100913.94;109828;1269;22417;-78
2023/09/09 04:23:05;;;;;;;31.10;24.50;;;;;;;15.46;69.61;100915.52;109633;1268;22360;-78
2023/09/09 04:25:53;;;;;;;25.90;23.30;;;;;;;15.48;69.70;100918.08;108891;1280;21986;-79
2023/09/09 04:29:06;;;;;;;26.70;23.40;;;;;;;15.47;69.67;100916.36;108898;1280;21987;-77
2023/09/09 04:31:51;;;;;;;27.60;24.50;;;;;;;15.47;69.62;100916.71;108986;1276;21997;-77
2023/09/09 04:34:42;;;;;;;26.80;23.90;;;;;;;15.47;69.64;100917.93;109281;1275;23609;-80
2023/09/09 04:37:27;;;;;;;26.00;23.30;;;;;;;15.47;69.53;100922.31;108933;1276;23730;-76
2023/09/09 04:40:25;;;;;;;26.50;23.90;;;;;;;15.48;69.66;100918.79;109009;1276;23644;-79
2023/09/09 04:43:05;;;;;;;27.00;24.00;;;;;;;15.48;69.79;100921.04;109070;1271;23702;-79
2023/09/09 04:45:49;;;;;;;27.70;24.10;;;;;;;15.50;69.55;100922.89;109782;1271;23713;-80
2023/09/09 04:49:23;;;;;;;31.00;25.00;;;;;;;15.48;69.68;100921.61;109707;1271;21989;-78
2023/09/09 04:52:22;;;;;;;26.80;23.90;;;;;;;15.47;69.69;100923.89;109543;1271;23715;-78
2023/09/09 04:55:04;;;;;;;26.50;23.90;;;;;;;15.50;69.80;100924.45;109545;1271;21983;-78
2023/09/09 04:57:44;;;;;;;25.20;22.80;;;;;;;15.55;69.89;100925.94;109209;1274;23058;-77
2023/09/09 05:00:30;;;;;;;28.60;24.30;;;;;;;15.57;69.79;100924.27;108851;1279;25048;-79
2023/09/09 05:03:19;;;;;;;26.30;23.50;;;;;;;15.59;69.66;100928.21;108956;1276;21961;-78
2023/09/09 05:06:10;;;;;;;26.00;23.50;;;;;;;15.58;69.74;100929.46;109039;1277;23071;-77
2023/09/09 05:08:50;;;;;;;28.00;23.40;;;;;;;15.62;69.83;100934.88;109132;1276;23709;-77
2023/09/09 05:11:43;;;;;;;26.60;24.00;;;;;;;15.66;69.82;100933.67;109080;1277;22524;-76
2023/09/09 05:14:28;;;;;;;26.10;23.50;;;;;;;15.68;69.76;100935.86;109011;1264;22026;-78
2023/09/09 05:17:09;;;;;;;27.30;24.70;;;;;;;15.68;69.69;100937.22;108926;1278;21985;-76
2023/09/09 05:19:45;;;;;;;27.90;24.80;;;;;;;15.71;69.74;100942.01;109361;1273;22027;-76
2023/09/09 05:22:47;;;;;;;25.20;22.80;;;;;;;15.74;69.81;100940.11;109954;1268;23019;-76
2023/09/09 05:25:57;;;;;;;;;;;;;;;;;;;;;
2023/09/09 05:28:45;;;;;;;26.90;23.30;;;;;;;15.83;69.96;100946.86;109422;1273;22009;-78
2023/09/09 05:31:23;;;;;;;28.40;25.40;;;;;;;15.93;69.91;100946.91;109161;1273;21972;-78
2023/09/09 05:34:27;;;;;;;26.00;23.50;;;;;;;16.01;69.77;100946.16;109203;1273;22032;-77
2023/09/09 05:37:30;;;;;;;26.40;23.30;;;;;;;16.07;69.84;100945.64;109711;1269;23216;-77
2023/09/09 05:40:38;;;;;;;24.90;22.40;;;;;;;16.10;69.74;100936.05;109564;1269;22089;-78
2023/09/09 05:43:30;;;;;;;27.50;24.30;;;;;;;16.17;69.76;100934.25;109537;1269;21976;-77
2023/09/09 05:46:18;;;;;;;28.30;24.80;;;;;;;16.32;69.69;100945.10;109567;1269;22437;-78
2023/09/09 05:49:54;;;;;;;25.90;23.20;;;;;;;16.42;69.73;100945.77;109897;1269;22126;-76
2023/09/09 05:53:03;;;;;;;27.40;22.50;;;;;;;16.55;69.56;100943.33;109535;1269;21977;-76
2023/09/09 05:56:08;;;;;;;25.70;22.90;;;;;;;16.71;69.53;100944.95;109674;1269;23750;-78
2023/09/09 05:59:44;;;;;;;;;;;;;;;;;;;;;
2023/09/09 06:03:44;;;;;;;26.40;23.70;;;;;;;17.03;68.99;100943.73;109308;1271;21967;-77
2023/09/09 06:07:12;;;;;;;24.20;21.70;;;;;;;17.27;68.83;100945.98;109075;1277;23135;-78
2023/09/09 06:09:51;;;;;;;24.10;21.90;;;;;;;17.48;68.49;100947.73;108892;1277;21968;-79
2023/09/09 06:12:36;;;;;;;23.60;21.40;;;;;;;17.73;68.12;100948.23;108884;1272;23698;-79
2023/09/09 06:15:40;;;;;;;24.50;22.10;;;;;;;17.96;67.64;100953.27;108775;1277;22465;-79
2023/09/09 06:19:16;;;;;;;22.70;20.50;;;;;;;18.29;66.89;100956.42;108809;1277;21994;-78
2023/09/09 06:22:25;;;;;;;25.10;19.70;;;;;;;18.59;66.34;100960.73;108633;1282;23882;-77
2023/09/09 06:25:22;;;;;;;21.90;19.60;;;;;;;18.94;65.38;100961.08;108773;1277;23033;-77
2023/09/09 06:28:18;;;;;;;20.30;18.20;;;;;;;19.33;64.79;100959.47;108503;1284;22957;-78
2023/09/09 06:31:07;;;;;;;22.50;18.60;;;;;;;19.73;64.01;100957.73;108445;1283;22214;-77
2023/09/09 06:33:45;;;;;;;20.80;18.70;;;;;;;20.12;63.54;100959.36;108512;1284;21992;-77
2023/09/09 06:37:10;;;;;;;25.90;17.70;;;;;;;20.50;62.40;100962.58;108836;1275;21976;-78
2023/09/09 06:40:16;;;;;;;;;;;;;;;;;;;;;
2023/09/09 06:43:24;;;;;;;20.30;18.20;;;;;;;21.64;60.19;100963.28;108036;1289;22000;-78
2023/09/09 06:45:54;;;;;;;19.40;16.60;;;;;;;22.06;58.48;100969.14;108169;1282;22757;-78
2023/09/09 06:48:32;;;;;;;20.80;17.00;;;;;;;22.44;57.36;100967.31;108491;1282;21989;-79
2023/09/09 06:51:54;;;;;;;19.60;16.40;;;;;;;22.82;56.56;100965.60;108397;1283;22027;-79
2023/09/09 06:54:46;;;;;;;;;;;;;;;;;;;;;
2023/09/09 06:58:12;;;;;;;15.60;14.20;;;;;;;23.74;54.75;100969.35;108037;1291;22224;-79
2023/09/09 07:13:20;;;;;;;;;;;;;;;;;;;;;
2023/09/09 07:16:32;;;;;;;16.80;15.10;;;;;;;25.76;48.06;100978.27;109158;1276;23849;-82
2023/09/09 07:19:51;;;;;;;;;;;;;;;;;;;;;
2023/09/09 07:23:37;;;;;;;20.90;14.60;;;;;;;26.17;47.27;100980.86;110031;1266;24493;-77
2023/09/09 07:26:41;;;;;;;15.30;13.80;;;;;;;26.47;46.94;100973.77;106055;1266;5145904;-76
2023/09/09 07:29:54;;;;;;;15.00;13.10;;;;;;;26.80;46.11;100974.55;109824;1271;21979;-80
2023/09/09 07:32:53;;;;;;;14.10;12.60;;;;;;;26.99;45.72;100973.09;109725;1271;21979;-82
2023/09/09 07:35:52;;;;;;;17.40;13.50;;;;;;;27.19;45.24;100973.27;110004;1271;21984;-79
2023/09/09 07:38:56;;;;;;;14.00;12.60;;;;;;;27.38;44.37;100971.36;109767;1271;22011;-78
2023/09/09 07:42:04;;;;;;;;;;;;;;;;;;;;;
2023/09/09 07:44:48;;;;;;;15.40;13.80;;;;;;;27.82;44.04;100965.35;110506;1267;22013;-80
2023/09/09 07:47:49;;;;;;;15.00;12.20;;;;;;;28.02;43.28;100964.48;109506;1271;22761;-77
2023/09/09 07:50:29;;;;;;;13.10;11.70;;;;;;;28.33;43.28;100966.48;109764;1272;22061;-77
2023/09/09 07:53:07;;;;;;;12.70;11.40;;;;;;;28.73;42.64;100962.13;110352;1265;21966;-79
2023/09/09 07:55:40;;;;;;;15.80;12.90;;;;;;;29.07;41.85;100961.49;109862;1261;21997;-78
2023/09/09 07:58:16;;;;;;;15.30;12.20;;;;;;;29.29;40.86;100957.12;109684;1270;22441;-79
2023/09/09 08:01:13;;;;;;;13.70;12.00;;;;;;;29.47;40.30;100956.66;109930;1265;21970;-79
2023/09/09 08:04:19;;;;;;;12.80;11.60;;;;;;;29.60;40.38;100956.48;110462;1265;21973;-80
2023/09/09 08:10:52;;;;;;;19.50;11.80;;;;;;;29.96;39.69;100955.42;109441;1273;22918;-74
2023/09/09 08:13:24;;;;;;;;;;;;;;;30.33;39.75;100960.17;108834;1279;22095;-75
2023/09/09 08:15:53;;;;;;;16.10;10.90;;;;;;;30.56;39.16;100959.90;108846;1278;23052;-77
2023/09/09 08:18:30;;;;;;;12.50;10.70;;;;;;;30.74;38.04;100957.09;109075;1275;22948;-77
2023/09/09 08:21:04;;;;;;;13.50;10.40;;;;;;;30.82;37.51;100959.45;109494;1271;21982;-76
2023/09/09 08:23:33;;;;;;;13.60;10.30;;;;;;;30.87;37.09;100959.40;109559;1271;21984;-77
2023/09/09 08:26:04;;;;;;;11.70;8.80;;;;;;;30.91;36.95;100960.36;110012;1268;24888;-78
2023/09/09 08:28:32;;;;;;;;;;;;;;;30.89;36.74;100957.02;110361;1262;23023;-76
2023/09/09 08:31:04;;;;;;;10.20;8.90;;;;;;;30.88;37.04;100958.61;110255;1260;23335;-76
2023/09/09 08:33:33;;;;;;;12.70;8.90;;;;;;;31.15;36.94;100961.55;110309;1264;21964;-77
2023/09/09 08:36:05;;;;;;;12.00;8.10;;;;;;;31.31;35.36;100966.05;110404;1264;21973;-77
2023/09/09 08:38:39;;;;;;;9.00;7.70;;;;;;;31.55;35.85;100964.85;110464;1265;21970;-76
2023/09/09 08:41:43;;;;;;;10.30;8.00;;;;;;;31.89;35.31;100963.31;110229;1265;21970;-76
2023/09/09 08:45:11;;;;;;;;;;;;;;;;;;;;;
2023/09/09 08:47:50;;;;;;;8.70;7.70;;;;;;;32.52;34.14;100961.61;110389;1265;21973;-76
2023/09/09 08:50:31;;;;;;;10.20;8.30;;;;;;;32.69;32.53;100959.94;110389;1264;21980;-76
2023/09/09 08:53:13;;;;;;;10.40;7.60;;;;;;;32.73;32.41;100960.11;110745;1260;21991;-76
2023/09/09 08:55:42;;;;;;;10.40;9.30;;;;;;;33.02;32.93;100964.66;111012;1255;21967;-77
2023/09/09 08:58:15;;;;;;;9.50;6.80;;;;;;;33.33;32.12;100965.13;110935;1254;22480;-76
2023/09/09 09:01:03;;;;;;;8.80;7.30;;;;;;;33.30;30.38;100962.44;111361;1255;21960;-77
2023/09/09 09:03:50;;;;;;;;;;;;;;;;;;;;;
2023/09/09 09:06:32;;;;;;;9.50;6.80;;;;;;;33.25;30.71;100959.30;111074;1254;21967;-76
2023/09/09 09:09:07;;;;;;;13.40;6.20;;;;;;;33.17;30.71;100957.05;111290;1254;21972;-79
2023/09/09 09:11:44;;;;;;;7.90;6.10;;;;;;;33.09;30.50;100954.17;110712;1259;21950;-79
2023/09/09 09:14:18;;;;;;;7.50;6.10;;;;;;;33.07;29.96;100948.11;110158;1264;21964;-79
2023/09/09 09:16:58;;;;;;;8.00;6.20;;;;;;;33.03;29.98;100949.35;110672;1264;22753;-78
2023/09/09 09:19:31;;;;;;;16.50;10.00;;;;;;;33.13;30.31;100946.50;109562;1269;22917;-78
2023/09/09 09:22:12;;;;;;;10.50;6.20;;;;;;;33.32;29.98;100945.39;109795;1269;21972;-77
2023/09/09 09:24:48;;;;;;;8.20;6.00;;;;;;;33.43;29.44;100945.41;109008;1271;23060;-77
2023/09/09 09:27:19;;;;;;;8.00;5.80;;;;;;;33.38;29.07;100945.08;108663;1279;23116;-76
2023/09/09 09:30:02;;;;;;;8.20;6.10;;;;;;;33.37;29.42;100947.65;109066;1274;23702;-76
2023/09/09 09:32:44;;;;;;;8.70;5.80;;;;;;;33.47;29.18;100943.54;109008;1275;21988;-77
2023/09/09 09:35:35;;;;;;;16.40;5.70;;;;;;;33.58;28.49;100938.56;108916;1279;21991;-78
2023/09/09 09:38:09;;;;;;;5.70;5.20;;;;;;;33.69;28.82;100938.49;108660;1280;22357;-78
2023/09/09 09:40:44;;;;;;;10.80;5.40;;;;;;;33.72;28.16;100937.94;108888;1279;25035;-76
2023/09/09 09:43:20;;;;;;;13.60;6.20;;;;;;;33.63;28.01;100936.86;108873;1277;22580;-75
2023/09/09 09:45:49;;;;;;;7.60;5.60;;;;;;;33.65;28.21;100937.13;109274;1273;21992;-76
2023/09/09 09:48:29;;;;;;;8.10;5.40;;;;;;;33.66;28.16;100940.98;109105;1273;21978;-77
2023/09/09 09:51:02;;;;;;;7.90;5.50;;;;;;;33.55;28.05;100934.73;109306;1269;22271;-76
2023/09/09 09:53:56;;;;;;;7.10;5.10;;;;;;;33.68;28.51;100937.20;109160;1272;21981;-76
2023/09/09 09:56:47;;;;;;;6.70;4.80;;;;;;;33.78;27.62;100939.29;109277;1273;22040;-78
2023/09/09 09:59:39;;;;;;;9.60;5.50;;;;;;;33.55;27.71;100936.23;109462;1273;21993;-77
2023/09/09 10:02:24;;;;;;;8.60;5.90;;;;;;;33.34;28.17;100934.55;109797;1269;23661;-79
2023/09/09 10:05:20;;;;;;;7.70;5.90;;;;;;;33.17;29.13;100933.42;109908;1268;23040;-80
2023/09/09 10:08:25;;;;;;;12.00;6.60;;;;;;;33.03;29.70;100927.31;109206;1275;24249;-80
2023/09/09 10:11:10;;;;;;;10.90;5.50;;;;;;;32.75;29.46;100925.66;109283;1271;22023;-80
2023/09/09 10:14:14;;;;;;;6.70;5.20;;;;;;;32.50;29.49;100921.35;109364;1276;22075;-81
2023/09/09 10:16:55;;;;;;;8.50;7.20;;;;;;;32.31;30.23;100922.71;109375;1276;21995;-79
2023/09/09 10:19:26;;;;;;;12.10;7.50;;;;;;;32.27;31.07;100918.25;109374;1268;21992;-78
2023/09/09 10:22:59;;;;;;;8.10;5.80;;;;;;;32.17;30.74;100919.60;108974;1276;21993;-79
2023/09/09 10:26:56;;;;;;;;;;;;;;;;;;;;;
2023/09/09 10:30:05;;;;;;;5.90;5.40;;;;;;;31.61;30.61;100918.67;109605;1272;22396;-81
2023/09/09 10:37:09;;;;;;;10.80;6.50;;;;;;;31.15;31.53;100923.33;109533;1275;22601;-82
2023/09/09 10:39:53;;;;;;;8.40;6.70;;;;;;;31.13;31.91;100921.77;109550;1274;22009;-81
2023/09/09 10:42:36;;;;;;;8.60;6.40;;;;;;;31.21;32.26;100918.40;109378;1278;21992;-81
2023/09/09 10:45:47;;;;;;;9.00;5.90;;;;;;;31.23;31.69;100913.20;109276;1276;22008;-81
2023/09/09 10:48:21;;;;;;;17.10;9.70;;;;;;;31.22;31.63;100913.38;109346;1280;21983;-80
2023/09/09 10:50:55;;;;;;;7.60;6.30;;;;;;;31.25;31.90;100910.59;109090;1280;23541;-79
2023/09/09 10:53:35;;;;;;;8.00;5.70;;;;;;;31.23;31.44;100911.87;109284;1280;22015;-81
2023/09/09 10:56:17;;;;;;;11.90;6.30;;;;;;;31.10;31.05;100913.83;109173;1280;22013;-82
2023/09/09 10:59:34;;;;;;;16.70;10.00;;;;;;;30.94;31.39;100913.34;108635;1288;22009;-82
2023/09/09 11:02:22;;;;;;;12.90;9.40;;;;;;;30.71;31.96;100906.03;108808;1284;22030;-81
2023/09/09 11:05:30;;;;;;;12.40;7.80;;;;;;;30.47;32.91;100902.35;109178;1275;23042;-82
2023/09/09 11:08:52;;;;;;;8.30;5.60;;;;;;;30.32;33.59;100907.45;108839;1285;22053;-83
2023/09/09 11:11:42;;;;;;;7.40;5.90;;;;;;;30.19;32.87;100911.98;108782;1285;22010;-82
2023/09/09 11:14:41;;;;;;;8.10;5.90;;;;;;;29.92;32.72;100906.20;108969;1280;21994;-83
2023/09/09 11:17:30;;;;;;;9.70;6.40;;;;;;;29.81;33.30;100907.23;109305;1276;21988;-81
2023/09/09 11:20:15;;;;;;;7.90;7.00;;;;;;;29.80;33.25;100906.63;109290;1276;23737;-83
2023/09/09 11:23:18;;;;;;;9.70;6.70;;;;;;;29.71;33.10;100904.33;109386;1276;23703;-83
2023/09/09 11:26:13;;;;;;;10.90;6.70;;;;;;;29.59;33.60;100902.38;110323;1266;23703;-85
2023/09/09 11:29:13;;;;;;;13.30;7.00;;;;;;;29.54;33.62;100896.48;109899;1271;21983;-84
2023/09/09 11:32:28;;;;;;;7.90;7.10;;;;;;;29.37;33.93;100889.74;109551;1274;23039;-82
2023/09/09 11:35:43;;;;;;;10.40;6.60;;;;;;;29.06;35.21;100889.73;109290;1279;21822;-82
2023/09/09 11:39:03;;;;;;;8.30;7.50;;;;;;;29.05;35.30;100884.08;109299;1279;23050;-82
2023/09/09 11:42:01;;;;;;;8.90;6.70;;;;;;;29.07;35.13;100881.06;109255;1279;22400;-80
2023/09/09 11:44:52;;;;;;;11.60;6.40;;;;;;;29.07;34.61;100882.38;109363;1271;22000;-81
2023/09/09 11:47:58;;;;;;;8.10;6.70;;;;;;;29.07;34.49;100881.87;109761;1265;21984;-81
2023/09/09 11:50:48;;;;;;;13.70;11.50;;;;;;;29.02;34.47;100881.36;110047;1267;22160;-81
2023/09/09 11:53:46;;;;;;;8.40;6.60;;;;;;;29.00;34.37;100877.46;110493;1262;21992;-81
2023/09/09 11:56:33;;;;;;;9.00;8.20;;;;;;;29.00;34.11;100875.98;110869;1261;21988;-81
2023/09/09 11:59:18;;;;;;;10.70;7.40;;;;;;;28.87;34.48;100870.05;110837;1261;21991;-81
2023/09/09 12:01:59;;;;;;;9.90;7.40;;;;;;;28.78;35.04;100867.44;110674;1264;22004;-81
2023/09/09 12:04:58;;;;;;;8.30;7.10;;;;;;;28.72;35.18;100866.69;109727;1272;21995;-81
2023/09/09 12:07:47;;;;;;;9.00;7.50;;;;;;;28.68;35.39;100866.91;110396;1267;22368;-81
2023/09/09 12:10:56;;;;;;;9.50;8.00;;;;;;;28.63;35.26;100869.39;109728;1272;21996;-82
2023/09/09 12:13:39;;;;;;;17.30;7.10;;;;;;;28.51;36.21;100867.94;108741;1284;22014;-82
2023/09/09 12:16:40;;;;;;;14.40;6.70;;;;;;;28.58;36.12;100866.85;108550;1288;22014;-81
2023/09/09 12:19:29;;;;;;;6.30;5.50;;;;;;;28.58;35.72;100857.95;108519;1288;23840;-81
2023/09/09 12:22:16;;;;;;;12.00;6.80;;;;;;;28.57;35.50;100851.61;108462;1286;22626;-82
2023/09/09 12:24:51;;;;;;;7.20;6.20;;;;;;;28.52;35.89;100847.96;108598;1288;22021;-81
2023/09/09 12:27:45;;;;;;;6.80;5.70;;;;;;;28.60;35.64;100849.98;108347;1291;22006;-81
2023/09/09 12:30:58;;;;;;;8.00;5.90;;;;;;;28.67;35.18;100843.68;108691;1285;22013;-81
2023/09/09 12:33:52;;;;;;;8.60;5.90;;;;;;;28.70;34.65;100844.48;108950;1277;22014;-79
2023/09/09 12:36:26;;;;;;;6.00;5.40;;;;;;;28.68;34.20;100845.63;109199;1279;22557;-80
2023/09/09 12:39:02;;;;;;;7.30;5.90;;;;;;;28.61;33.93;100837.39;108970;1279;22040;-83
2023/09/09 12:41:46;;;;;;;6.40;5.70;;;;;;;28.60;34.07;100840.00;109125;1279;22871;-81
2023/09/09 12:44:49;;;;;;;10.40;5.40;;;;;;;28.60;34.11;100839.64;108993;1276;21994;-81
2023/09/09 12:47:34;;;;;;;6.90;6.20;;;;;;;28.65;34.19;100838.90;109454;1275;21985;-80
2023/09/09 12:50:07;;;;;;;9.30;5.90;;;;;;;28.71;34.03;100836.91;110559;1256;21962;-81
2023/09/09 12:53:37;;;;;;;9.40;6.00;;;;;;;28.75;34.09;100835.54;111295;1255;21962;-80
2023/09/09 12:56:07;;;;;;;6.90;6.20;;;;;;;28.73;34.13;100834.46;111512;1255;21971;-79
2023/09/09 12:58:49;;;;;;;7.10;6.30;;;;;;;28.68;34.37;100832.36;111721;1255;21982;-80
2023/09/09 13:02:15;;;;;;;10.80;6.60;;;;;;;28.65;34.74;100831.02;110832;1264;22066;-81
2023/09/09 13:05:01;;;;;;;6.60;6.00;;;;;;;28.69;34.99;100828.48;110968;1262;22418;-81
2023/09/09 13:08:26;;;;;;;8.90;6.20;;;;;;;28.69;35.09;100826.36;110847;1263;21971;-80
2023/09/09 13:11:32;;;;;;;6.90;5.20;;;;;;;28.69;34.21;100825.05;110699;1263;22964;-79
2023/09/09 13:14:03;;;;;;;5.90;5.20;;;;;;;28.70;33.40;100819.94;110825;1264;21965;-82
2023/09/09 13:16:57;;;;;;;9.40;5.90;;;;;;;28.72;33.37;100816.02;110805;1263;21988;-80
2023/09/09 13:19:42;;;;;;;6.60;5.70;;;;;;;28.76;33.37;100818.35;110972;1258;21979;-81
2023/09/09 13:22:36;;;;;;;8.00;5.70;;;;;;;28.83;33.60;100815.73;111155;1258;21950;-79
2023/09/09 13:25:16;;;;;;;6.40;5.80;;;;;;;28.83;33.58;100809.39;111071;1259;21987;-81
2023/09/09 13:28:00;;;;;;;9.00;5.60;;;;;;;28.81;33.89;100805.84;111187;1257;21970;-80
2023/09/09 13:30:39;;;;;;;5.90;4.80;;;;;;;28.83;33.75;100801.91;110574;1264;24520;-81
2023/09/09 13:33:28;;;;;;;6.10;5.20;;;;;;;28.80;33.32;100801.04;110001;1270;21994;-81
2023/09/09 13:36:42;;;;;;;6.10;4.80;;;;;;;28.76;33.15;100798.20;109896;1270;23731;-82
2023/09/09 13:39:25;;;;;;;6.60;5.50;;;;;;;28.77;32.81;100793.44;110317;1268;22402;-81
2023/09/09 13:43:09;;;;;;;11.60;5.60;;;;;;;28.80;32.84;100797.19;109532;1275;21985;-81
2023/09/09 13:46:46;;;;;;;7.70;5.30;;;;;;;28.78;32.97;100792.34;109279;1278;21988;-82
2023/09/09 13:50:40;;;;;;;;;;;;;;;;;;;;;